Rumney, New Hampshire
Current Conditions -  °F | °C
As of 1:15 AM on Thursday 29 Jan 2015 (Local Time) from K1P1 Reporting Station
Clear Clear  
Wind Chill: -14°   Ceiling: Unl
Heat Index: -9°   Visibility: 10mi
Dew Point: -18°   Wind: 7mph
Humidity: 50%   Direction: 290°WNW
Pressure: 30.24"   Gusts: NA
Location:  43.81°N, 71.81°W
Report Text: K1P1 290615Z AUTO 29006KT 10SM CLR M09/M17 A3024 RMK AO2 T10871175
Loading
Personal Weather Stations






























Interactive Weather Map New forecast layout! Learn more

10-Day Weather Forecast

Advertisements
Track Severe Weather on mobile